sensor_id;sensor_type;location;lat;lon;timestamp;temperature;humidity
3136;DHT22;1578;47.658;9.922;2022-12-29T00:01:45;2.20;65.30
3136;DHT22;1578;47.658;9.922;2022-12-29T00:04:14;2.30;63.90
3136;DHT22;1578;47.658;9.922;2022-12-29T00:06:41;2.40;60.00
3136;DHT22;1578;47.658;9.922;2022-12-29T00:09:07;2.40;61.80
3136;DHT22;1578;47.658;9.922;2022-12-29T00:11:33;2.40;63.80
3136;DHT22;1578;47.658;9.922;2022-12-29T00:13:59;2.50;60.50
3136;DHT22;1578;47.658;9.922;2022-12-29T00:16:44;2.50;58.60
3136;DHT22;1578;47.658;9.922;2022-12-29T00:19:11;2.60;58.50
3136;DHT22;1578;47.658;9.922;2022-12-29T00:21:58;2.60;59.60
3136;DHT22;1578;47.658;9.922;2022-12-29T00:24:45;2.40;60.60
3136;DHT22;1578;47.658;9.922;2022-12-29T00:27:30;2.40;67.90
3136;DHT22;1578;47.658;9.922;2022-12-29T00:30:20;2.40;63.90
3136;DHT22;1578;47.658;9.922;2022-12-29T00:33:12;2.30;66.20
3136;DHT22;1578;47.658;9.922;2022-12-29T00:36:06;2.40;63.90
3136;DHT22;1578;47.658;9.922;2022-12-29T00:38:35;2.30;65.60
3136;DHT22;1578;47.658;9.922;2022-12-29T00:41:20;2.30;66.70
3136;DHT22;1578;47.658;9.922;2022-12-29T00:44:06;2.30;67.90
3136;DHT22;1578;47.658;9.922;2022-12-29T00:46:36;2.30;65.90
3136;DHT22;1578;47.658;9.922;2022-12-29T00:49:02;2.20;68.40
3136;DHT22;1578;47.658;9.922;2022-12-29T00:51:47;2.30;67.10
3136;DHT22;1578;47.658;9.922;2022-12-29T00:54:13;2.20;65.60
3136;DHT22;1578;47.658;9.922;2022-12-29T00:56:40;2.20;67.10
3136;DHT22;1578;47.658;9.922;2022-12-29T00:59:08;2.20;67.70
3136;DHT22;1578;47.658;9.922;2022-12-29T01:01:34;2.20;67.70
3136;DHT22;1578;47.658;9.922;2022-12-29T01:04:00;2.30;68.50
3136;DHT22;1578;47.658;9.922;2022-12-29T01:06:26;2.30;67.80
3136;DHT22;1578;47.658;9.922;2022-12-29T01:08:52;2.40;66.00
3136;DHT22;1578;47.658;9.922;2022-12-29T01:11:37;2.40;64.60
3136;DHT22;1578;47.658;9.922;2022-12-29T01:14:03;2.30;67.10
3136;DHT22;1578;47.658;9.922;2022-12-29T01:16:29;2.20;68.40
3136;DHT22;1578;47.658;9.922;2022-12-29T01:18:55;2.20;66.70
3136;DHT22;1578;47.658;9.922;2022-12-29T01:21:21;2.30;67.30
3136;DHT22;1578;47.658;9.922;2022-12-29T01:23:47;2.40;63.90
3136;DHT22;1578;47.658;9.922;2022-12-29T01:26:14;2.50;65.00
3136;DHT22;1578;47.658;9.922;2022-12-29T01:28:41;2.50;66.20
3136;DHT22;1578;47.658;9.922;2022-12-29T01:31:12;2.50;66.40
3136;DHT22;1578;47.658;9.922;2022-12-29T01:33:38;2.60;61.80
3136;DHT22;1578;47.658;9.922;2022-12-29T01:36:09;2.50;65.90
3136;DHT22;1578;47.658;9.922;2022-12-29T01:38:36;2.60;66.80
3136;DHT22;1578;47.658;9.922;2022-12-29T01:41:03;2.60;66.00
3136;DHT22;1578;47.658;9.922;2022-12-29T01:43:46;2.70;65.20
3136;DHT22;1578;47.658;9.922;2022-12-29T01:48:46;2.90;61.80
3136;DHT22;1578;47.658;9.922;2022-12-29T01:51:13;2.90;63.80
3136;DHT22;1578;47.658;9.922;2022-12-29T01:53:39;3.10;58.70
3136;DHT22;1578;47.658;9.922;2022-12-29T01:56:07;3.00;60.90
3136;DHT22;1578;47.658;9.922;2022-12-29T01:58:39;3.10;57.30
3136;DHT22;1578;47.658;9.922;2022-12-29T02:01:06;3.10;61.50
3136;DHT22;1578;47.658;9.922;2022-12-29T02:03:32;3.10;64.50
3136;DHT22;1578;47.658;9.922;2022-12-29T02:06:02;3.10;63.70
3136;DHT22;1578;47.658;9.922;2022-12-29T02:08:31;3.10;64.50
3136;DHT22;1578;47.658;9.922;2022-12-29T02:10:59;3.10;60.00
3136;DHT22;1578;47.658;9.922;2022-12-29T02:13:27;3.10;59.90
3136;DHT22;1578;47.658;9.922;2022-12-29T02:16:18;3.10;58.10
3136;DHT22;1578;47.658;9.922;2022-12-29T02:40:53;3.20;55.60
3136;DHT22;1578;47.658;9.922;2022-12-29T02:43:31;3.30;55.00
3136;DHT22;1578;47.658;9.922;2022-12-29T02:46:12;3.40;57.10
3136;DHT22;1578;47.658;9.922;2022-12-29T02:48:43;3.40;60.20
3136;DHT22;1578;47.658;9.922;2022-12-29T02:51:43;3.40;61.00
3136;DHT22;1578;47.658;9.922;2022-12-29T02:54:09;3.30;60.10
3136;DHT22;1578;47.658;9.922;2022-12-29T02:56:53;3.30;59.00
3136;DHT22;1578;47.658;9.922;2022-12-29T02:59:19;3.30;58.00
3136;DHT22;1578;47.658;9.922;2022-12-29T03:13:39;3.60;50.20
3136;DHT22;1578;47.658;9.922;2022-12-29T03:16:45;3.60;53.20
3136;DHT22;1578;47.658;9.922;2022-12-29T03:25:08;3.70;48.60
3136;DHT22;1578;47.658;9.922;2022-12-29T03:27:42;3.50;50.90
3136;DHT22;1578;47.658;9.922;2022-12-29T03:30:10;3.60;50.30
3136;DHT22;1578;47.658;9.922;2022-12-29T03:32:48;3.60;49.70
3136;DHT22;1578;47.658;9.922;2022-12-29T03:35:17;3.80;44.30
3136;DHT22;1578;47.658;9.922;2022-12-29T03:37:51;3.90;42.70
3136;DHT22;1578;47.658;9.922;2022-12-29T03:40:20;4.00;41.50
3136;DHT22;1578;47.658;9.922;2022-12-29T03:42:47;4.10;40.20
3136;DHT22;1578;47.658;9.922;2022-12-29T03:45:13;4.10;42.60
3136;DHT22;1578;47.658;9.922;2022-12-29T03:47:39;4.10;45.50
3136;DHT22;1578;47.658;9.922;2022-12-29T03:50:05;4.20;42.00
3136;DHT22;1578;47.658;9.922;2022-12-29T03:52:31;4.10;45.40
3136;DHT22;1578;47.658;9.922;2022-12-29T03:54:56;3.90;49.30
3136;DHT22;1578;47.658;9.922;2022-12-29T03:57:22;4.00;45.50
3136;DHT22;1578;47.658;9.922;2022-12-29T03:59:48;4.00;49.60
3136;DHT22;1578;47.658;9.922;2022-12-29T04:02:13;4.00;51.10
3136;DHT22;1578;47.658;9.922;2022-12-29T04:04:39;3.90;51.10
3136;DHT22;1578;47.658;9.922;2022-12-29T04:07:04;3.80;51.20
3136;DHT22;1578;47.658;9.922;2022-12-29T04:09:30;3.60;52.70
3136;DHT22;1578;47.658;9.922;2022-12-29T04:11:56;3.50;54.80
3136;DHT22;1578;47.658;9.922;2022-12-29T04:14:22;3.50;54.30
3136;DHT22;1578;47.658;9.922;2022-12-29T04:16:47;3.40;57.20
3136;DHT22;1578;47.658;9.922;2022-12-29T04:19:13;3.30;58.30
3136;DHT22;1578;47.658;9.922;2022-12-29T04:21:38;3.30;53.90
3136;DHT22;1578;47.658;9.922;2022-12-29T04:24:05;3.30;54.60
3136;DHT22;1578;47.658;9.922;2022-12-29T04:26:32;3.20;58.80
3136;DHT22;1578;47.658;9.922;2022-12-29T04:28:58;3.10;62.90
3136;DHT22;1578;47.658;9.922;2022-12-29T04:31:23;3.10;64.70
3136;DHT22;1578;47.658;9.922;2022-12-29T04:33:49;3.20;62.30
3136;DHT22;1578;47.658;9.922;2022-12-29T04:36:14;3.20;63.60
3136;DHT22;1578;47.658;9.922;2022-12-29T04:38:40;3.30;64.00
3136;DHT22;1578;47.658;9.922;2022-12-29T04:41:06;3.30;56.80
3136;DHT22;1578;47.658;9.922;2022-12-29T04:43:31;3.20;59.80
3136;DHT22;1578;47.658;9.922;2022-12-29T04:45:57;3.20;60.10
3136;DHT22;1578;47.658;9.922;2022-12-29T04:48:23;3.20;59.00
3136;DHT22;1578;47.658;9.922;2022-12-29T04:50:49;3.10;58.50
3136;DHT22;1578;47.658;9.922;2022-12-29T04:53:15;3.10;58.90
3136;DHT22;1578;47.658;9.922;2022-12-29T04:55:41;2.90;65.00
3136;DHT22;1578;47.658;9.922;2022-12-29T04:58:07;3.00;64.80
3136;DHT22;1578;47.658;9.922;2022-12-29T05:00:33;2.90;64.90
3136;DHT22;1578;47.658;9.922;2022-12-29T05:02:58;2.80;64.90
3136;DHT22;1578;47.658;9.922;2022-12-29T05:05:24;2.80;62.90
3136;DHT22;1578;47.658;9.922;2022-12-29T05:07:50;2.80;64.90
3136;DHT22;1578;47.658;9.922;2022-12-29T05:10:16;2.80;65.90
3136;DHT22;1578;47.658;9.922;2022-12-29T05:12:42;2.90;66.80
3136;DHT22;1578;47.658;9.922;2022-12-29T05:15:10;2.80;64.80
3136;DHT22;1578;47.658;9.922;2022-12-29T05:17:35;2.80;66.70
3136;DHT22;1578;47.658;9.922;2022-12-29T05:20:01;2.90;63.50
3136;DHT22;1578;47.658;9.922;2022-12-29T05:22:27;2.90;63.10
3136;DHT22;1578;47.658;9.922;2022-12-29T05:24:52;2.90;63.10
3136;DHT22;1578;47.658;9.922;2022-12-29T05:27:18;2.90;62.40
3136;DHT22;1578;47.658;9.922;2022-12-29T05:29:43;3.00;61.30
3136;DHT22;1578;47.658;9.922;2022-12-29T05:32:09;2.80;62.20
3136;DHT22;1578;47.658;9.922;2022-12-29T05:34:35;2.60;67.00
3136;DHT22;1578;47.658;9.922;2022-12-29T05:37:00;2.60;69.70
3136;DHT22;1578;47.658;9.922;2022-12-29T05:39:28;2.60;70.40
3136;DHT22;1578;47.658;9.922;2022-12-29T05:41:54;2.60;70.30
3136;DHT22;1578;47.658;9.922;2022-12-29T05:44:20;2.50;73.00
3136;DHT22;1578;47.658;9.922;2022-12-29T05:46:45;2.50;73.10
3136;DHT22;1578;47.658;9.922;2022-12-29T05:49:11;2.60;71.80
3136;DHT22;1578;47.658;9.922;2022-12-29T05:51:37;2.60;70.20
3136;DHT22;1578;47.658;9.922;2022-12-29T05:54:02;2.60;67.70
3136;DHT22;1578;47.658;9.922;2022-12-29T05:56:28;2.60;66.00
3136;DHT22;1578;47.658;9.922;2022-12-29T05:58:53;2.60;65.30
3136;DHT22;1578;47.658;9.922;2022-12-29T06:01:19;2.50;66.00
3136;DHT22;1578;47.658;9.922;2022-12-29T06:03:45;2.50;66.30
3136;DHT22;1578;47.658;9.922;2022-12-29T06:06:10;2.40;67.10
3136;DHT22;1578;47.658;9.922;2022-12-29T06:08:36;2.30;68.40
3136;DHT22;1578;47.658;9.922;2022-12-29T06:11:01;2.30;66.30
3136;DHT22;1578;47.658;9.922;2022-12-29T06:13:27;2.40;65.70
3136;DHT22;1578;47.658;9.922;2022-12-29T06:15:53;2.20;65.30
3136;DHT22;1578;47.658;9.922;2022-12-29T06:18:18;2.10;67.00
3136;DHT22;1578;47.658;9.922;2022-12-29T06:20:44;2.00;67.30
3136;DHT22;1578;47.658;9.922;2022-12-29T06:23:10;2.00;68.20
3136;DHT22;1578;47.658;9.922;2022-12-29T06:25:37;2.10;64.50
3136;DHT22;1578;47.658;9.922;2022-12-29T06:28:03;1.90;64.40
3136;DHT22;1578;47.658;9.922;2022-12-29T06:30:30;1.80;66.70
3136;DHT22;1578;47.658;9.922;2022-12-29T06:32:57;1.80;68.00
3136;DHT22;1578;47.658;9.922;2022-12-29T06:35:23;1.80;69.10
3136;DHT22;1578;47.658;9.922;2022-12-29T06:37:49;1.70;69.30
3136;DHT22;1578;47.658;9.922;2022-12-29T06:40:14;1.70;69.50
3136;DHT22;1578;47.658;9.922;2022-12-29T06:42:40;1.60;73.90
3136;DHT22;1578;47.658;9.922;2022-12-29T06:45:06;1.60;74.30
3136;DHT22;1578;47.658;9.922;2022-12-29T06:47:33;1.70;72.40
3136;DHT22;1578;47.658;9.922;2022-12-29T06:49:59;1.70;71.20
3136;DHT22;1578;47.658;9.922;2022-12-29T06:52:24;1.60;73.20
3136;DHT22;1578;47.658;9.922;2022-12-29T06:54:50;1.60;76.80
3136;DHT22;1578;47.658;9.922;2022-12-29T06:57:16;1.60;78.10
3136;DHT22;1578;47.658;9.922;2022-12-29T06:59:41;1.60;80.70
3136;DHT22;1578;47.658;9.922;2022-12-29T07:02:08;1.60;79.80
3136;DHT22;1578;47.658;9.922;2022-12-29T07:04:34;1.70;79.50
3136;DHT22;1578;47.658;9.922;2022-12-29T07:07:00;1.80;77.50
3136;DHT22;1578;47.658;9.922;2022-12-29T07:09:25;1.80;77.00
3136;DHT22;1578;47.658;9.922;2022-12-29T07:11:51;1.80;75.00
3136;DHT22;1578;47.658;9.922;2022-12-29T07:14:16;1.90;73.70
3136;DHT22;1578;47.658;9.922;2022-12-29T07:16:42;1.90;71.90
3136;DHT22;1578;47.658;9.922;2022-12-29T07:19:08;2.10;71.50
3136;DHT22;1578;47.658;9.922;2022-12-29T07:21:33;2.10;69.30
3136;DHT22;1578;47.658;9.922;2022-12-29T07:23:59;2.30;68.10
3136;DHT22;1578;47.658;9.922;2022-12-29T07:26:24;2.30;68.20
3136;DHT22;1578;47.658;9.922;2022-12-29T07:28:50;2.30;67.50
3136;DHT22;1578;47.658;9.922;2022-12-29T07:31:21;2.30;64.50
3136;DHT22;1578;47.658;9.922;2022-12-29T07:33:47;2.50;64.00
3136;DHT22;1578;47.658;9.922;2022-12-29T07:36:14;2.50;63.00
3136;DHT22;1578;47.658;9.922;2022-12-29T07:38:40;2.50;63.40
3136;DHT22;1578;47.658;9.922;2022-12-29T07:41:06;2.60;62.20
3136;DHT22;1578;47.658;9.922;2022-12-29T07:43:31;2.60;65.70
3136;DHT22;1578;47.658;9.922;2022-12-29T07:45:57;2.60;65.30
3136;DHT22;1578;47.658;9.922;2022-12-29T07:48:25;2.70;64.00
3136;DHT22;1578;47.658;9.922;2022-12-29T07:50:51;2.80;64.60
3136;DHT22;1578;47.658;9.922;2022-12-29T07:53:17;2.90;64.40
3136;DHT22;1578;47.658;9.922;2022-12-29T07:55:43;3.10;58.60
3136;DHT22;1578;47.658;9.922;2022-12-29T07:58:08;3.30;55.70
3136;DHT22;1578;47.658;9.922;2022-12-29T08:00:34;3.40;51.30
3136;DHT22;1578;47.658;9.922;2022-12-29T08:03:00;3.60;50.80
3136;DHT22;1578;47.658;9.922;2022-12-29T08:05:25;3.70;50.60
3136;DHT22;1578;47.658;9.922;2022-12-29T08:07:51;3.80;51.10
3136;DHT22;1578;47.658;9.922;2022-12-29T08:10:18;3.80;53.20
3136;DHT22;1578;47.658;9.922;2022-12-29T08:12:44;3.80;51.90
3136;DHT22;1578;47.658;9.922;2022-12-29T08:15:11;3.70;53.00
3136;DHT22;1578;47.658;9.922;2022-12-29T08:17:37;3.70;54.50
3136;DHT22;1578;47.658;9.922;2022-12-29T08:20:03;3.90;54.70
3136;DHT22;1578;47.658;9.922;2022-12-29T08:22:30;3.90;54.50
3136;DHT22;1578;47.658;9.922;2022-12-29T08:24:55;4.10;52.50
3136;DHT22;1578;47.658;9.922;2022-12-29T08:27:22;4.10;55.30
3136;DHT22;1578;47.658;9.922;2022-12-29T08:29:48;4.00;59.00
3136;DHT22;1578;47.658;9.922;2022-12-29T08:32:14;4.10;56.00
3136;DHT22;1578;47.658;9.922;2022-12-29T08:34:39;4.20;56.50
3136;DHT22;1578;47.658;9.922;2022-12-29T08:37:05;4.20;58.00
3136;DHT22;1578;47.658;9.922;2022-12-29T08:39:31;4.30;58.50
3136;DHT22;1578;47.658;9.922;2022-12-29T08:41:56;4.50;56.70
3136;DHT22;1578;47.658;9.922;2022-12-29T08:44:22;4.50;61.30
3136;DHT22;1578;47.658;9.922;2022-12-29T08:46:48;4.60;60.10
3136;DHT22;1578;47.658;9.922;2022-12-29T08:49:13;4.70;53.40
3136;DHT22;1578;47.658;9.922;2022-12-29T08:51:39;4.90;55.50
3136;DHT22;1578;47.658;9.922;2022-12-29T08:54:05;5.00;55.60
3136;DHT22;1578;47.658;9.922;2022-12-29T08:56:31;5.10;56.10
3136;DHT22;1578;47.658;9.922;2022-12-29T08:58:57;5.20;53.60
3136;DHT22;1578;47.658;9.922;2022-12-29T09:01:22;5.20;56.80
3136;DHT22;1578;47.658;9.922;2022-12-29T09:03:48;5.30;58.60
3136;DHT22;1578;47.658;9.922;2022-12-29T09:06:16;5.40;48.30
3136;DHT22;1578;47.658;9.922;2022-12-29T09:08:42;5.50;52.10
3136;DHT22;1578;47.658;9.922;2022-12-29T09:11:13;5.60;53.70
3136;DHT22;1578;47.658;9.922;2022-12-29T09:13:39;5.60;53.10
3136;DHT22;1578;47.658;9.922;2022-12-29T09:16:05;5.60;49.70
3136;DHT22;1578;47.658;9.922;2022-12-29T09:18:30;5.70;50.00
3136;DHT22;1578;47.658;9.922;2022-12-29T09:20:58;6.00;43.30
3136;DHT22;1578;47.658;9.922;2022-12-29T09:23:24;6.10;46.60
3136;DHT22;1578;47.658;9.922;2022-12-29T09:25:49;6.30;47.00
3136;DHT22;1578;47.658;9.922;2022-12-29T09:28:15;6.40;47.60
3136;DHT22;1578;47.658;9.922;2022-12-29T09:30:41;6.50;47.40
3136;DHT22;1578;47.658;9.922;2022-12-29T09:33:07;6.60;45.90
3136;DHT22;1578;47.658;9.922;2022-12-29T09:35:32;6.80;43.80
3136;DHT22;1578;47.658;9.922;2022-12-29T09:37:58;6.80;42.20
3136;DHT22;1578;47.658;9.922;2022-12-29T09:40:32;6.90;43.90
3136;DHT22;1578;47.658;9.922;2022-12-29T09:45:52;7.30;44.30
3136;DHT22;1578;47.658;9.922;2022-12-29T09:48:23;7.50;43.20
3136;DHT22;1578;47.658;9.922;2022-12-29T09:50:55;7.60;43.80
3136;DHT22;1578;47.658;9.922;2022-12-29T09:53:27;7.80;45.70
3136;DHT22;1578;47.658;9.922;2022-12-29T09:55:56;7.90;42.30
3136;DHT22;1578;47.658;9.922;2022-12-29T09:58:43;8.00;32.80
3136;DHT22;1578;47.658;9.922;2022-12-29T10:01:16;8.10;40.70
3136;DHT22;1578;47.658;9.922;2022-12-29T10:03:47;8.10;40.80
3136;DHT22;1578;47.658;9.922;2022-12-29T10:06:20;8.20;42.50
3136;DHT22;1578;47.658;9.922;2022-12-29T10:13:56;8.30;37.60
3136;DHT22;1578;47.658;9.922;2022-12-29T10:19:41;8.60;40.90
3136;DHT22;1578;47.658;9.922;2022-12-29T10:25:00;8.90;29.50
3136;DHT22;1578;47.658;9.922;2022-12-29T10:27:31;9.00;28.40
3136;DHT22;1578;47.658;9.922;2022-12-29T10:29:59;9.00;24.50
3136;DHT22;1578;47.658;9.922;2022-12-29T10:32:30;9.30;30.00
3136;DHT22;1578;47.658;9.922;2022-12-29T10:35:19;9.40;33.50
3136;DHT22;1578;47.658;9.922;2022-12-29T10:38:34;9.60;26.00
3136;DHT22;1578;47.658;9.922;2022-12-29T10:40:48;10.00;24.10
3136;DHT22;1578;47.658;9.922;2022-12-29T10:46:01;10.60;22.80
3136;DHT22;1578;47.658;9.922;2022-12-29T10:48:31;11.00;23.70
3136;DHT22;1578;47.658;9.922;2022-12-29T10:50:58;11.30;17.00
3136;DHT22;1578;47.658;9.922;2022-12-29T10:53:40;11.40;18.20
3136;DHT22;1578;47.658;9.922;2022-12-29T10:56:21;11.60;17.70
3136;DHT22;1578;47.658;9.922;2022-12-29T10:58:51;11.70;14.70
3136;DHT22;1578;47.658;9.922;2022-12-29T11:01:20;11.80;13.30
3136;DHT22;1578;47.658;9.922;2022-12-29T11:06:25;12.10;12.40
3136;DHT22;1578;47.658;9.922;2022-12-29T11:09:08;12.30;12.00
3136;DHT22;1578;47.658;9.922;2022-12-29T11:11:36;12.40;12.30
3136;DHT22;1578;47.658;9.922;2022-12-29T11:14:26;12.60;10.80
3136;DHT22;1578;47.658;9.922;2022-12-29T11:17:01;12.60;13.60
3136;DHT22;1578;47.658;9.922;2022-12-29T11:19:29;12.70;11.30
3136;DHT22;1578;47.658;9.922;2022-12-29T11:22:20;12.70;13.80
3136;DHT22;1578;47.658;9.922;2022-12-29T11:24:47;12.60;10.50
3136;DHT22;1578;47.658;9.922;2022-12-29T11:27:25;12.60;12.20
3136;DHT22;1578;47.658;9.922;2022-12-29T11:29:52;12.40;9.50
3136;DHT22;1578;47.658;9.922;2022-12-29T11:32:23;12.20;11.30
3136;DHT22;1578;47.658;9.922;2022-12-29T11:34:50;12.20;9.90
3136;DHT22;1578;47.658;9.922;2022-12-29T11:40:20;12.10;9.40
3136;DHT22;1578;47.658;9.922;2022-12-29T11:45:21;12.10;9.60
3136;DHT22;1578;47.658;9.922;2022-12-29T11:47:55;11.90;11.10
3136;DHT22;1578;47.658;9.922;2022-12-29T11:50:33;12.00;9.30
3136;DHT22;1578;47.658;9.922;2022-12-29T11:53:17;11.90;13.40
3136;DHT22;1578;47.658;9.922;2022-12-29T11:55:55;11.90;10.30
3136;DHT22;1578;47.658;9.922;2022-12-29T11:58:31;11.80;10.80
3136;DHT22;1578;47.658;9.922;2022-12-29T12:01:10;11.90;10.00
3136;DHT22;1578;47.658;9.922;2022-12-29T12:03:43;11.90;11.10
3136;DHT22;1578;47.658;9.922;2022-12-29T12:06:13;12.00;12.70
3136;DHT22;1578;47.658;9.922;2022-12-29T12:08:53;12.10;11.10
3136;DHT22;1578;47.658;9.922;2022-12-29T12:11:31;12.10;12.40
3136;DHT22;1578;47.658;9.922;2022-12-29T12:14:17;12.20;14.10
3136;DHT22;1578;47.658;9.922;2022-12-29T12:16:54;12.20;13.70
3136;DHT22;1578;47.658;9.922;2022-12-29T12:22:29;12.50;11.90
3136;DHT22;1578;47.658;9.922;2022-12-29T12:25:09;12.50;15.00
3136;DHT22;1578;47.658;9.922;2022-12-29T12:27:41;12.50;11.20
3136;DHT22;1578;47.658;9.922;2022-12-29T12:30:20;12.60;18.00
3136;DHT22;1578;47.658;9.922;2022-12-29T12:38:54;12.70;18.10
3136;DHT22;1578;47.658;9.922;2022-12-29T12:44:20;12.60;22.40
3136;DHT22;1578;47.658;9.922;2022-12-29T12:47:05;12.60;16.50
3136;DHT22;1578;47.658;9.922;2022-12-29T12:50:02;12.50;20.80
3136;DHT22;1578;47.658;9.922;2022-12-29T12:55:40;12.50;15.50
3136;DHT22;1578;47.658;9.922;2022-12-29T12:58:49;12.40;16.60
3136;DHT22;1578;47.658;9.922;2022-12-29T13:01:38;12.40;11.40
3136;DHT22;1578;47.658;9.922;2022-12-29T13:04:26;12.20;17.70
3136;DHT22;1578;47.658;9.922;2022-12-29T13:09:54;11.70;12.80
3136;DHT22;1578;47.658;9.922;2022-12-29T13:19:11;10.80;10.90
3136;DHT22;1578;47.658;9.922;2022-12-29T13:22:11;10.90;11.90
3136;DHT22;1578;47.658;9.922;2022-12-29T13:24:51;10.90;11.70
3136;DHT22;1578;47.658;9.922;2022-12-29T13:30:00;11.00;13.80
3136;DHT22;1578;47.658;9.922;2022-12-29T13:35:26;10.70;8.90
3136;DHT22;1578;47.658;9.922;2022-12-29T13:38:00;10.80;13.90
3136;DHT22;1578;47.658;9.922;2022-12-29T13:40:35;10.70;12.30
3136;DHT22;1578;47.658;9.922;2022-12-29T13:43:04;10.70;12.60
3136;DHT22;1578;47.658;9.922;2022-12-29T13:45:32;10.60;17.90
3136;DHT22;1578;47.658;9.922;2022-12-29T13:48:35;10.60;24.30
3136;DHT22;1578;47.658;9.922;2022-12-29T13:50:57;10.50;24.90
3136;DHT22;1578;47.658;9.922;2022-12-29T13:56:39;10.40;24.30
3136;DHT22;1578;47.658;9.922;2022-12-29T14:05:00;10.40;30.00
3136;DHT22;1578;47.658;9.922;2022-12-29T14:07:27;10.40;30.10
3136;DHT22;1578;47.658;9.922;2022-12-29T14:09:55;10.30;29.10
3136;DHT22;1578;47.658;9.922;2022-12-29T14:12:38;10.20;29.00
3136;DHT22;1578;47.658;9.922;2022-12-29T14:17:38;10.10;32.80
3136;DHT22;1578;47.658;9.922;2022-12-29T14:20:16;10.10;35.20
3136;DHT22;1578;47.658;9.922;2022-12-29T14:23:15;10.10;32.20
3136;DHT22;1578;47.658;9.922;2022-12-29T14:28:39;10.20;33.60
3136;DHT22;1578;47.658;9.922;2022-12-29T14:39:33;10.00;29.80
3136;DHT22;1578;47.658;9.922;2022-12-29T14:44:33;9.70;34.40
3136;DHT22;1578;47.658;9.922;2022-12-29T14:47:04;9.60;34.80
3136;DHT22;1578;47.658;9.922;2022-12-29T14:49:33;9.70;34.50
3136;DHT22;1578;47.658;9.922;2022-12-29T14:54:45;9.60;34.70
3136;DHT22;1578;47.658;9.922;2022-12-29T14:57:33;9.50;38.30
3136;DHT22;1578;47.658;9.922;2022-12-29T15:00:21;9.50;38.40
3136;DHT22;1578;47.658;9.922;2022-12-29T15:03:02;9.30;41.90
3136;DHT22;1578;47.658;9.922;2022-12-29T15:05:55;9.30;42.20
3136;DHT22;1578;47.658;9.922;2022-12-29T15:08:25;9.20;43.70
3136;DHT22;1578;47.658;9.922;2022-12-29T15:11:14;9.10;40.90
3136;DHT22;1578;47.658;9.922;2022-12-29T15:13:42;8.90;42.60
3136;DHT22;1578;47.658;9.922;2022-12-29T15:16:23;9.00;43.30
3136;DHT22;1578;47.658;9.922;2022-12-29T15:18:49;8.90;44.30
3136;DHT22;1578;47.658;9.922;2022-12-29T15:21:16;8.90;45.90
3136;DHT22;1578;47.658;9.922;2022-12-29T15:23:44;8.90;45.30
3136;DHT22;1578;47.658;9.922;2022-12-29T15:26:11;8.80;46.50
3136;DHT22;1578;47.658;9.922;2022-12-29T15:28:43;8.70;47.80
3136;DHT22;1578;47.658;9.922;2022-12-29T15:31:13;8.70;47.00
3136;DHT22;1578;47.658;9.922;2022-12-29T15:33:42;8.70;43.00
3136;DHT22;1578;47.658;9.922;2022-12-29T15:36:19;8.60;46.90
3136;DHT22;1578;47.658;9.922;2022-12-29T15:38:46;8.60;47.10
3136;DHT22;1578;47.658;9.922;2022-12-29T15:41:39;8.60;45.10
3136;DHT22;1578;47.658;9.922;2022-12-29T15:44:30;8.60;47.10
3136;DHT22;1578;47.658;9.922;2022-12-29T15:47:01;8.40;46.20
3136;DHT22;1578;47.658;9.922;2022-12-29T15:49:27;8.20;46.70
3136;DHT22;1578;47.658;9.922;2022-12-29T15:51:53;8.10;48.60
3136;DHT22;1578;47.658;9.922;2022-12-29T15:54:21;7.90;49.20
3136;DHT22;1578;47.658;9.922;2022-12-29T15:57:20;7.70;51.60
3136;DHT22;1578;47.658;9.922;2022-12-29T15:59:47;7.50;51.80
3136;DHT22;1578;47.658;9.922;2022-12-29T16:02:13;7.60;50.70
3136;DHT22;1578;47.658;9.922;2022-12-29T16:04:40;7.70;50.10
3136;DHT22;1578;47.658;9.922;2022-12-29T16:07:28;7.70;51.20
3136;DHT22;1578;47.658;9.922;2022-12-29T16:09:59;7.70;50.90
3136;DHT22;1578;47.658;9.922;2022-12-29T16:12:31;7.60;51.80
3136;DHT22;1578;47.658;9.922;2022-12-29T16:15:03;7.60;50.20
3136;DHT22;1578;47.658;9.922;2022-12-29T16:17:33;7.50;52.40
3136;DHT22;1578;47.658;9.922;2022-12-29T16:20:20;7.50;54.10
3136;DHT22;1578;47.658;9.922;2022-12-29T16:22:50;7.40;54.80
3136;DHT22;1578;47.658;9.922;2022-12-29T16:25:23;7.50;54.00
3136;DHT22;1578;47.658;9.922;2022-12-29T16:27:50;7.30;56.20
3136;DHT22;1578;47.658;9.922;2022-12-29T16:30:25;7.20;57.00
3136;DHT22;1578;47.658;9.922;2022-12-29T16:32:54;7.10;60.10
3136;DHT22;1578;47.658;9.922;2022-12-29T16:35:25;7.10;60.20
3136;DHT22;1578;47.658;9.922;2022-12-29T16:38:19;7.10;60.40
3136;DHT22;1578;47.658;9.922;2022-12-29T16:40:54;7.10;60.40
3136;DHT22;1578;47.658;9.922;2022-12-29T16:50:41;6.90;60.50
3136;DHT22;1578;47.658;9.922;2022-12-29T16:53:27;6.90;59.30
3136;DHT22;1578;47.658;9.922;2022-12-29T16:55:54;6.80;62.00
3136;DHT22;1578;47.658;9.922;2022-12-29T16:58:23;6.70;65.30
3136;DHT22;1578;47.658;9.922;2022-12-29T17:00:52;6.70;65.00
3136;DHT22;1578;47.658;9.922;2022-12-29T17:03:19;6.70;65.30
3136;DHT22;1578;47.658;9.922;2022-12-29T17:05:45;6.70;65.00
3136;DHT22;1578;47.658;9.922;2022-12-29T17:08:19;6.80;64.10
3136;DHT22;1578;47.658;9.922;2022-12-29T17:10:50;6.80;65.70
3136;DHT22;1578;47.658;9.922;2022-12-29T17:13:36;6.80;65.40
3136;DHT22;1578;47.658;9.922;2022-12-29T17:16:02;6.70;65.90
3136;DHT22;1578;47.658;9.922;2022-12-29T17:18:28;6.70;68.10
3136;DHT22;1578;47.658;9.922;2022-12-29T17:20:53;6.70;67.20
3136;DHT22;1578;47.658;9.922;2022-12-29T17:23:20;6.70;67.40
3136;DHT22;1578;47.658;9.922;2022-12-29T17:25:46;6.70;70.00
3136;DHT22;1578;47.658;9.922;2022-12-29T17:28:25;6.70;70.00
3136;DHT22;1578;47.658;9.922;2022-12-29T17:30:52;6.50;75.10
3136;DHT22;1578;47.658;9.922;2022-12-29T17:33:20;6.70;73.90
3136;DHT22;1578;47.658;9.922;2022-12-29T17:35:46;6.70;76.80
3136;DHT22;1578;47.658;9.922;2022-12-29T17:40:43;6.60;83.40
3136;DHT22;1578;47.658;9.922;2022-12-29T17:43:12;6.70;81.30
3136;DHT22;1578;47.658;9.922;2022-12-29T17:45:39;6.70;82.30
3136;DHT22;1578;47.658;9.922;2022-12-29T17:48:11;6.70;82.80
3136;DHT22;1578;47.658;9.922;2022-12-29T17:50:37;6.80;84.50
3136;DHT22;1578;47.658;9.922;2022-12-29T17:53:05;6.80;83.30
3136;DHT22;1578;47.658;9.922;2022-12-29T17:55:32;6.80;85.40
3136;DHT22;1578;47.658;9.922;2022-12-29T17:57:58;6.70;87.20
3136;DHT22;1578;47.658;9.922;2022-12-29T18:00:28;6.80;89.00
3136;DHT22;1578;47.658;9.922;2022-12-29T18:02:56;6.80;90.00
3136;DHT22;1578;47.658;9.922;2022-12-29T18:05:28;6.80;90.20
3136;DHT22;1578;47.658;9.922;2022-12-29T18:07:56;6.80;90.00
3136;DHT22;1578;47.658;9.922;2022-12-29T18:10:24;6.80;90.50
3136;DHT22;1578;47.658;9.922;2022-12-29T18:12:54;6.90;90.00
3136;DHT22;1578;47.658;9.922;2022-12-29T18:15:25;7.00;89.80
3136;DHT22;1578;47.658;9.922;2022-12-29T18:18:15;6.90;90.00
3136;DHT22;1578;47.658;9.922;2022-12-29T18:20:43;6.90;90.50
3136;DHT22;1578;47.658;9.922;2022-12-29T18:23:24;6.90;90.00
3136;DHT22;1578;47.658;9.922;2022-12-29T18:25:59;6.90;90.90
3136;DHT22;1578;47.658;9.922;2022-12-29T18:28:26;6.90;90.60
3136;DHT22;1578;47.658;9.922;2022-12-29T18:30:52;6.90;91.50
3136;DHT22;1578;47.658;9.922;2022-12-29T18:33:20;7.00;91.10
3136;DHT22;1578;47.658;9.922;2022-12-29T18:38:18;6.90;91.70
3136;DHT22;1578;47.658;9.922;2022-12-29T18:40:44;6.70;94.20
3136;DHT22;1578;47.658;9.922;2022-12-29T18:43:17;6.80;93.70
3136;DHT22;1578;47.658;9.922;2022-12-29T18:45:43;6.70;94.40
3136;DHT22;1578;47.658;9.922;2022-12-29T18:48:11;6.80;93.90
3136;DHT22;1578;47.658;9.922;2022-12-29T18:50:37;6.90;93.20
3136;DHT22;1578;47.658;9.922;2022-12-29T18:53:02;6.90;92.60
3136;DHT22;1578;47.658;9.922;2022-12-29T18:55:28;6.90;93.20